Accueil
METAR-TAF:

METAR-TAF

Aéroports :

Odiham, Angleterre

latitude: 51-14N, longitude: 000-57W, altitude: 123 m

Observation

Le bulletin a été fait il y a 35 minutes, à 18:50 UTC
Vent 4 kt de ouest/sud-ouest
Température 9°C
Humidité 87%
Pression 1028 hPa
Visibilité 10 km ou plus

METAR: EGVO 191850Z AUTO 25004KT 9999 NCD 09/07 Q1028

Heure: 20:25 (19:25 UTC)

Prévision

Le bulletin a été fait il y a 5 heures et 46 minutes, à 13:39 UTC
Prévision valable du 19 à 15 UTC au 20 à 03 UTC
Vent 4 kt de direction variable
Visibilité 10 km ou plus
pas de nuages en-dessous de 1500 mètres et pas de cumulonimbus.
Evoluant progressivement
du 19 à 22 UTC au 20 à 01 UTC
Visibilité: 5000 m
brume sèche
Probabilité 40%
du 20 à 01 UTC au 20 à 03 UTC
Visibilité: 3000 m
brume, Brouillard mince

TAF: EGVO 191339Z 1915/2003 VRB04KT CAVOK BECMG 1922/2001 5000 HZ PROB40 2001/2003 3000 BR MIFG

Observations et prévisions météorologiques de plus de 4000 aéroports (messages METAR et TAF).

Les stations disponibles sont représentées par des disques jaunes et rouges sur la carte.

Passer la souris dessus pour voir le nom de la station.

Cliquer dessus pour voir les observations et prévisions météorologiques.

Pour changer de carte: cliquez sur les boutons verts avec une croix noire pour zoomer, sur le bouton vert avec un tiret pour effectuer un zoom arrière, ou sur les flèches vertes pour les cartes adjacentes.


METAR-TAF: